Time;durP1;ratioP1;P1;durP2;ratioP2;P2;SDS_P1;SDS_P2;PMS_P1;PMS_P2;Temp;Humidity;BMP_temperature;BMP_pressure;BME280_temperature;BME280_humidity;BME280_pressure;Samples;Min_cycle;Max_cycle;Signal;HPM_P1;HPM_P2
2022/01/21 00:00:48;;;;;;;7.35;4.25;;;;;;;2.39;100.00;100882.13;5053418;28;20654;-78
2022/01/21 00:03:14;;;;;;;8.65;3.65;;;;;;;2.42;100.00;100884.75;5061260;28;20262;-77
2022/01/21 00:05:42;;;;;;;9.52;5.88;;;;;;;2.52;100.00;100881.19;5072383;28;20201;-77
2022/01/21 00:08:09;;;;;;;10.20;4.18;;;;;;;2.59;100.00;100879.38;5064005;28;20197;-77
2022/01/21 00:10:37;;;;;;;10.00;4.45;;;;;;;2.62;100.00;100880.25;5057255;28;20607;-77
2022/01/21 00:13:13;;;;;;;10.98;4.10;;;;;;;2.48;100.00;100879.41;5056322;28;20710;-77
2022/01/21 00:15:40;;;;;;;5.53;3.40;;;;;;;2.54;100.00;100871.41;5058590;28;20199;-76
2022/01/21 00:18:08;;;;;;;9.88;3.70;;;;;;;2.67;100.00;100859.84;5063501;28;20699;-76
2022/01/21 00:31:29;;;;;;;11.43;4.55;;;;;;;2.33;100.00;100868.84;5054008;28;20240;-77
2022/01/21 00:33:55;;;;;;;9.43;4.60;;;;;;;2.35;100.00;100880.34;5063255;28;20203;-77
2022/01/21 00:36:22;;;;;;;7.57;3.92;;;;;;;2.23;100.00;100886.59;5060469;28;20194;-77
2022/01/21 00:38:49;;;;;;;6.13;4.60;;;;;;;2.50;100.00;100881.19;5067363;28;20228;-77
2022/01/21 00:41:21;;;;;;;9.10;3.65;;;;;;;2.39;100.00;100879.47;5062674;28;20243;-77
2022/01/21 00:43:48;;;;;;;9.15;3.83;;;;;;;2.45;100.00;100877.66;5058786;28;20197;-77
2022/01/21 00:46:15;;;;;;;5.20;3.85;;;;;;;2.57;100.00;100874.06;5060186;28;20256;-76
2022/01/21 00:48:42;;;;;;;11.23;5.20;;;;;;;2.53;100.00;100859.00;5058569;28;20229;-76
2022/01/21 00:51:08;;;;;;;8.80;4.03;;;;;;;2.50;100.00;100865.22;5063311;28;20326;-76
2022/01/21 00:53:35;;;;;;;12.30;4.85;;;;;;;2.64;100.00;100867.81;5063724;28;20291;-76
2022/01/21 00:56:02;;;;;;;9.48;5.07;;;;;;;2.66;100.00;100883.75;5061909;28;20225;-76
2022/01/21 00:58:30;;;;;;;11.05;4.63;;;;;;;2.75;100.00;100885.50;5059493;28;20197;-75
2022/01/21 01:00:56;;;;;;;9.43;4.32;;;;;;;2.68;100.00;100879.31;5062207;28;20200;-76
2022/01/21 01:03:23;;;;;;;11.40;5.55;;;;;;;2.93;100.00;100880.06;5054382;28;20576;-76
2022/01/21 01:05:51;;;;;;;8.38;4.95;;;;;;;2.86;99.24;100878.34;5067868;28;20201;-76
2022/01/21 01:08:18;;;;;;;13.73;4.97;;;;;;;2.74;100.00;100873.97;5064360;28;20377;-75
2022/01/21 01:10:59;;;;;;;7.72;4.70;;;;;;;2.56;100.00;100882.94;5063249;28;20284;-76
2022/01/21 01:21:43;;;;;;;9.50;4.80;;;;;;;2.64;100.00;100882.88;5063093;28;20335;-75
2022/01/21 01:29:35;;;;;;;7.05;4.75;;;;;;;2.79;100.00;100896.09;5063364;28;20204;-75
2022/01/21 01:32:05;;;;;;;9.05;4.75;;;;;;;2.81;100.00;100893.44;5060276;28;20202;-76
2022/01/21 01:34:32;;;;;;;11.35;5.38;;;;;;;2.83;100.00;100899.66;5051939;28;20186;-76
2022/01/21 01:37:04;;;;;;;11.32;5.68;;;;;;;2.86;100.00;100897.84;5060850;28;20608;-75
2022/01/21 01:39:37;;;;;;;7.90;4.95;;;;;;;2.93;98.64;100909.31;5059685;28;20241;-75
2022/01/21 01:42:31;;;;;;;9.77;5.57;;;;;;;2.93;98.96;100912.00;5066820;28;20197;-75
2022/01/21 01:50:29;;;;;;;11.63;5.18;;;;;;;2.95;99.48;100915.53;5055743;28;20257;-74
2022/01/21 01:52:56;;;;;;;10.18;4.32;;;;;;;2.85;99.12;100913.81;5067492;28;20194;-75
2022/01/21 01:55:23;;;;;;;11.05;4.80;;;;;;;2.71;99.55;100917.44;5066106;28;20217;-75
2022/01/21 01:57:50;;;;;;;9.30;4.43;;;;;;;2.82;99.01;100921.81;5054915;28;20207;-75
2022/01/21 02:00:17;;;;;;;9.27;4.95;;;;;;;2.69;99.58;100923.63;5070924;28;20635;-75
2022/01/21 02:02:46;;;;;;;12.05;4.38;;;;;;;2.66;100.00;100921.88;5062497;28;20680;-75
2022/01/21 02:05:12;;;;;;;9.73;4.40;;;;;;;2.77;99.92;100920.94;5063123;28;20643;-75
2022/01/21 02:07:39;;;;;;;10.13;4.00;;;;;;;2.64;100.00;100930.75;5062462;28;20288;-75
2022/01/21 02:10:06;;;;;;;8.63;5.20;;;;;;;3.06;99.00;100919.00;5061026;28;20200;-75
2022/01/21 02:12:33;;;;;;;8.23;4.85;;;;;;;3.24;96.31;100926.00;5063270;28;20190;-76
2022/01/21 02:15:01;;;;;;;9.63;4.05;;;;;;;2.82;97.29;100925.34;5066251;28;20280;-75
2022/01/21 02:22:58;;;;;;;6.05;3.60;;;;;;;2.78;99.71;100912.06;5052474;28;20672;-75
2022/01/21 02:25:26;;;;;;;8.15;4.35;;;;;;;2.65;99.97;100905.94;5066355;28;20288;-75
2022/01/21 02:27:55;;;;;;;8.05;4.47;;;;;;;2.67;99.76;100909.50;5063169;28;20199;-75
2022/01/21 02:30:23;;;;;;;14.32;4.25;;;;;;;2.49;100.00;100902.47;5066026;28;20209;-76
2022/01/21 02:32:53;;;;;;;10.82;4.40;;;;;;;2.44;100.00;100898.94;5056367;28;20540;-75
2022/01/21 02:35:21;;;;;;;9.95;4.05;;;;;;;2.50;100.00;100891.81;5066126;28;20627;-75
2022/01/21 02:37:48;;;;;;;13.02;4.05;;;;;;;2.55;100.00;100899.75;5066003;28;20276;-75
2022/01/21 02:40:17;;;;;;;10.63;4.55;;;;;;;2.55;100.00;100905.09;5069341;28;20213;-76
2022/01/21 02:42:44;;;;;;;10.35;4.18;;;;;;;2.67;100.00;100905.03;5055630;28;20688;-75
2022/01/21 02:45:14;;;;;;;12.70;3.67;;;;;;;2.62;100.00;100908.59;5062648;28;20255;-76
2022/01/21 02:47:40;;;;;;;7.18;3.60;;;;;;;2.61;100.00;100915.69;5054553;28;20276;-76
2022/01/21 02:50:07;;;;;;;9.70;3.67;;;;;;;2.49;100.00;100902.47;5061308;28;20194;-76
2022/01/21 02:52:42;;;;;;;9.48;3.72;;;;;;;2.62;100.00;100908.59;5057707;28;20207;-76
2022/01/21 02:55:09;;;;;;;9.43;4.95;;;;;;;2.55;100.00;100922.81;5065617;28;20242;-76
2022/01/21 02:57:37;;;;;;;9.10;4.22;;;;;;;2.66;100.00;100913.91;5062595;28;20293;-76
2022/01/21 03:00:06;;;;;;;9.75;3.85;;;;;;;2.54;100.00;100911.31;5062215;28;20212;-76
2022/01/21 03:02:32;;;;;;;10.32;4.60;;;;;;;2.47;100.00;100917.53;5070021;28;20617;-76
2022/01/21 03:05:04;;;;;;;7.93;4.00;;;;;;;2.28;100.00;100922.03;5062174;28;20548;-75
2022/01/21 03:07:31;;;;;;;7.32;3.85;;;;;;;2.35;100.00;100918.44;5061926;28;20223;-75
2022/01/21 03:09:57;;;;;;;12.02;4.95;;;;;;;2.45;100.00;100919.31;5060115;28;20202;-75
2022/01/21 03:12:24;;;;;;;7.78;4.55;;;;;;;2.49;100.00;100911.31;5072897;28;20186;-77
2022/01/21 03:14:52;;;;;;;7.65;3.78;;;;;;;2.40;100.00;100906.06;5065466;28;20194;-75
2022/01/21 03:17:19;;;;;;;11.35;4.70;;;;;;;2.35;100.00;100907.81;5063704;28;20225;-77
2022/01/21 03:19:46;;;;;;;8.05;4.72;;;;;;;2.41;100.00;100912.25;5061756;28;20288;-76
2022/01/21 03:22:13;;;;;;;10.88;5.15;;;;;;;2.64;100.00;100922.78;5061896;28;20693;-77
2022/01/21 03:24:40;;;;;;;14.30;6.47;;;;;;;2.73;100.00;100920.06;5061600;28;20202;-76
2022/01/21 03:27:06;;;;;;;7.93;3.95;;;;;;;2.56;100.00;100913.97;5061678;28;20281;-75
2022/01/21 03:29:33;;;;;;;12.05;4.68;;;;;;;2.46;100.00;100918.41;5047606;28;20287;-76
2022/01/21 03:32:01;;;;;;;7.05;4.35;;;;;;;2.41;100.00;100928.19;5060840;28;20201;-75
2022/01/21 03:34:28;;;;;;;8.40;4.50;;;;;;;2.43;100.00;100921.09;5061846;28;20190;-76
2022/01/21 03:36:54;;;;;;;10.40;5.25;;;;;;;2.50;100.00;100922.84;5066811;28;20196;-76
2022/01/21 03:39:21;;;;;;;6.70;4.20;;;;;;;2.42;100.00;100919.31;5062076;28;20201;-76
2022/01/21 03:41:48;;;;;;;9.35;4.82;;;;;;;2.48;100.00;100924.63;5061526;28;20281;-76
2022/01/21 03:44:15;;;;;;;14.90;5.40;;;;;;;2.50;100.00;100912.22;5061709;28;20237;-76
2022/01/21 03:46:41;;;;;;;10.90;4.00;;;;;;;2.64;100.00;100915.69;5060604;28;20239;-75
2022/01/21 03:49:09;;;;;;;13.00;4.90;;;;;;;2.48;100.00;100903.34;5056276;28;20257;-76
2022/01/21 03:51:37;;;;;;;9.88;4.57;;;;;;;2.26;100.00;100903.44;5060180;28;20179;-76
2022/01/21 03:54:04;;;;;;;6.68;4.18;;;;;;;2.19;100.00;100906.97;5061223;28;20563;-76
2022/01/21 03:56:30;;;;;;;6.40;3.95;;;;;;;2.06;100.00;100911.47;5060987;28;20194;-75
2022/01/21 03:58:57;;;;;;;6.85;4.78;;;;;;;2.13;100.00;100922.97;5061699;28;20663;-75
2022/01/21 04:01:24;;;;;;;10.93;4.90;;;;;;;2.08;100.00;100927.38;5060725;28;20190;-75
2022/01/21 04:03:51;;;;;;;12.02;4.90;;;;;;;2.11;100.00;100942.47;5060771;28;20626;-75
2022/01/21 04:06:19;;;;;;;14.52;5.13;;;;;;;2.15;100.00;100949.50;5061175;28;20194;-75
2022/01/21 04:08:46;;;;;;;11.70;4.72;;;;;;;2.16;100.00;100959.28;5061125;28;20213;-75
2022/01/21 04:11:13;;;;;;;10.38;4.75;;;;;;;2.23;100.00;100953.94;5054384;28;20198;-75
2022/01/21 04:13:39;;;;;;;12.95;4.93;;;;;;;2.56;100.00;100959.19;5060831;28;20214;-75
2022/01/21 04:16:06;;;;;;;15.10;4.97;;;;;;;2.27;100.00;100957.47;5061501;28;20646;-76
2022/01/21 04:18:33;;;;;;;9.73;4.47;;;;;;;2.40;100.00;100956.56;5061426;28;20318;-76
2022/01/21 04:21:00;;;;;;;10.85;4.70;;;;;;;2.30;100.00;100954.81;5064116;28;20586;-76
2022/01/21 04:23:29;;;;;;;9.32;4.53;;;;;;;2.35;100.00;100955.66;5064125;28;20299;-75
2022/01/21 04:25:55;;;;;;;9.93;4.15;;;;;;;2.49;100.00;100958.31;5062915;28;20204;-75
2022/01/21 04:28:24;;;;;;;10.68;4.72;;;;;;;2.19;100.00;100959.25;5055378;28;20688;-75
2022/01/21 04:30:51;;;;;;;6.97;4.35;;;;;;;2.13;100.00;100961.94;5061074;28;20236;-75
2022/01/21 04:33:17;;;;;;;8.85;4.70;;;;;;;2.09;100.00;100961.06;5065944;28;20237;-76
2022/01/21 04:35:44;;;;;;;10.80;4.60;;;;;;;1.92;100.00;100963.72;5060588;28;20610;-76
2022/01/21 04:38:14;;;;;;;12.88;4.63;;;;;;;1.86;100.00;100961.09;5059960;28;20196;-76
2022/01/21 04:40:48;;;;;;;10.07;5.05;;;;;;;1.82;100.00;100965.50;5068286;28;21006;-75
2022/01/21 04:48:42;;;;;;;9.88;5.35;;;;;;;2.18;100.00;100960.16;5063470;28;20258;-75
2022/01/21 04:51:15;;;;;;;7.93;4.78;;;;;;;2.38;100.00;100965.44;5064104;28;20193;-75
2022/01/21 04:53:45;;;;;;;7.88;4.50;;;;;;;2.07;100.00;100976.13;5057312;28;20186;-76
2022/01/21 04:56:13;;;;;;;8.90;4.90;;;;;;;2.06;100.00;100974.38;5063107;28;20189;-76
2022/01/21 04:58:40;;;;;;;7.65;4.95;;;;;;;1.99;100.00;100972.56;5063733;28;20233;-75
2022/01/21 05:01:07;;;;;;;8.25;4.55;;;;;;;2.24;100.00;100969.00;5052665;28;20273;-75
2022/01/21 05:03:36;;;;;;;9.95;4.72;;;;;;;2.16;100.00;100970.78;5059774;28;20217;-75
2022/01/21 05:06:03;;;;;;;11.45;4.70;;;;;;;2.18;100.00;100970.78;5063317;28;20631;-76
2022/01/21 05:08:38;;;;;;;15.15;5.00;;;;;;;2.14;100.00;100967.25;5071736;28;20185;-76
2022/01/21 05:11:04;;;;;;;8.70;4.93;;;;;;;2.47;100.00;100970.72;5052860;28;20195;-76
2022/01/21 05:13:38;;;;;;;9.07;5.10;;;;;;;2.16;100.00;100970.78;5052060;28;20185;-76
2022/01/21 05:16:09;;;;;;;8.95;4.45;;;;;;;2.26;100.00;100967.22;5052932;28;20575;-76
2022/01/21 05:18:36;;;;;;;11.38;5.03;;;;;;;2.35;100.00;100966.31;5060141;28;20654;-76
2022/01/21 05:21:02;;;;;;;9.25;4.45;;;;;;;2.20;100.00;100971.69;5063307;28;20280;-76
2022/01/21 05:23:30;;;;;;;17.40;5.40;;;;;;;2.34;100.00;100979.63;5062822;28;20310;-76
2022/01/21 05:25:57;;;;;;;11.43;4.90;;;;;;;2.21;100.00;100976.97;5062970;28;20292;-76
2022/01/21 05:28:23;;;;;;;8.00;4.18;;;;;;;2.47;100.00;100974.25;5064165;28;20229;-75
2022/01/21 05:30:51;;;;;;;8.35;4.35;;;;;;;2.38;100.00;100971.63;5066727;28;20280;-76
2022/01/21 05:33:18;;;;;;;8.25;4.85;;;;;;;2.40;100.00;100979.63;5062762;28;20190;-76
2022/01/21 05:35:44;;;;;;;10.50;5.05;;;;;;;2.46;100.00;100991.09;5059510;28;20276;-75
2022/01/21 05:38:11;;;;;;;15.65;4.85;;;;;;;2.50;100.00;100991.97;5062325;28;20289;-75
2022/01/21 05:40:38;;;;;;;14.75;4.72;;;;;;;2.30;100.00;100998.22;5054125;28;20197;-75
2022/01/21 05:43:05;;;;;;;11.38;5.10;;;;;;;2.21;100.00;100992.91;5052698;28;20305;-76
2022/01/21 05:48:17;;;;;;;7.88;5.13;;;;;;;2.66;100.00;100999.00;5055425;28;20244;-76
2022/01/21 05:50:44;;;;;;;10.13;5.13;;;;;;;2.72;100.00;101014.97;5058132;28;20284;-76
2022/01/21 05:53:12;;;;;;;12.13;5.55;;;;;;;2.62;100.00;101007.91;5068314;28;20220;-76
2022/01/21 05:55:41;;;;;;;6.47;4.97;;;;;;;2.59;100.00;101002.56;5065314;28;20201;-76
2022/01/21 05:58:09;;;;;;;14.30;4.85;;;;;;;2.53;100.00;101007.91;5060689;28;20194;-76
2022/01/21 06:00:36;;;;;;;11.23;5.10;;;;;;;2.06;100.00;101016.88;5065014;28;20658;-76
2022/01/21 06:03:04;;;;;;;14.95;5.22;;;;;;;2.06;100.00;101011.56;5062845;28;20242;-76
2022/01/21 06:05:33;;;;;;;13.13;5.50;;;;;;;2.15;100.00;101018.63;5062723;28;20277;-76
2022/01/21 06:08:01;;;;;;;14.00;5.82;;;;;;;2.03;100.00;101019.50;5063165;28;20585;-75
2022/01/21 06:10:28;;;;;;;11.68;5.25;;;;;;;2.12;100.00;101016.84;5064145;28;20198;-76
2022/01/21 06:12:55;;;;;;;13.65;5.07;;;;;;;2.43;100.00;101004.41;5066525;28;20198;-76
2022/01/21 06:15:22;;;;;;;12.52;5.07;;;;;;;2.74;100.00;100990.09;5065795;28;20610;-76
2022/01/21 06:17:49;;;;;;;12.82;5.70;;;;;;;2.80;100.00;100998.94;5059286;28;20225;-75
2022/01/21 06:20:15;;;;;;;16.23;5.95;;;;;;;2.92;100.00;100998.03;5065803;28;20284;-76
2022/01/21 06:22:43;;;;;;;9.00;4.90;;;;;;;2.70;100.00;101014.06;5066964;28;20695;-77
2022/01/21 06:25:10;;;;;;;11.40;5.50;;;;;;;2.59;100.00;101018.53;5058554;28;20192;-77
2022/01/21 06:27:39;;;;;;;12.80;5.35;;;;;;;2.67;100.00;101015.88;5062311;28;20283;-76
2022/01/21 06:30:07;;;;;;;8.55;5.10;;;;;;;2.51;100.00;101020.34;5062753;28;20307;-76
2022/01/21 06:32:34;;;;;;;10.77;5.40;;;;;;;2.50;100.00;101022.09;5060365;28;20303;-77
2022/01/21 06:35:00;;;;;;;16.48;5.57;;;;;;;2.53;100.00;101022.97;5072239;28;20282;-78
2022/01/21 06:37:27;;;;;;;14.95;5.43;;;;;;;2.63;100.00;101024.75;5066090;28;20182;-79
2022/01/21 06:39:55;;;;;;;14.45;6.95;;;;;;;2.65;100.00;101028.28;5065112;28;20233;-79
2022/01/21 06:42:25;;;;;;;8.52;6.00;;;;;;;2.62;100.00;101021.22;5062966;28;20294;-77
2022/01/21 06:44:51;;;;;;;9.23;5.85;;;;;;;2.68;100.00;101034.47;5067631;28;20224;-77
2022/01/21 06:47:19;;;;;;;11.85;5.95;;;;;;;2.61;100.00;101037.16;5056923;28;20232;-77
2022/01/21 06:49:45;;;;;;;12.02;6.07;;;;;;;2.69;100.00;101036.25;5067633;28;20636;-79
2022/01/21 06:52:12;;;;;;;15.45;5.70;;;;;;;2.65;100.00;101039.81;5063620;28;20703;-78
2022/01/21 06:54:39;;;;;;;10.38;5.45;;;;;;;2.58;100.00;101035.41;5063799;28;20197;-78
2022/01/21 06:57:08;;;;;;;10.43;5.80;;;;;;;2.59;100.00;101039.81;5064011;28;20200;-78
2022/01/21 06:59:34;;;;;;;15.18;5.80;;;;;;;2.47;100.00;101045.16;5049826;28;20200;-77
2022/01/21 07:02:01;;;;;;;11.57;5.40;;;;;;;2.43;100.00;101046.94;5060065;28;20248;-76
2022/01/21 07:04:27;;;;;;;15.45;6.18;;;;;;;2.47;100.00;101054.03;5048554;28;20211;-77
2022/01/21 07:06:56;;;;;;;11.85;6.45;;;;;;;2.44;100.00;101062.03;5064965;28;20297;-77
2022/01/21 07:09:23;;;;;;;12.25;6.03;;;;;;;2.50;100.00;101067.31;5064597;28;20645;-76
2022/01/21 07:11:49;;;;;;;13.60;6.15;;;;;;;2.42;100.00;101073.50;5066416;28;20281;-76
2022/01/21 07:14:18;;;;;;;18.60;6.35;;;;;;;2.69;100.00;101069.91;5061397;28;20283;-76
2022/01/21 07:16:44;;;;;;;17.95;6.78;;;;;;;2.69;100.00;101068.19;5060824;28;20208;-77
2022/01/21 07:19:11;;;;;;;13.63;6.13;;;;;;;2.82;100.00;101073.44;5069020;28;20288;-77
2022/01/21 07:21:38;;;;;;;12.30;6.97;;;;;;;2.87;100.00;101072.56;5059934;28;20217;-77
2022/01/21 07:24:05;;;;;;;11.95;6.93;;;;;;;2.94;100.00;101078.75;5063863;28;20247;-77
2022/01/21 07:26:32;;;;;;;13.45;5.90;;;;;;;2.90;100.00;101083.19;5067689;28;20182;-77
2022/01/21 07:28:58;;;;;;;11.18;6.05;;;;;;;2.58;100.00;101075.28;5062239;28;20281;-77
2022/01/21 07:31:27;;;;;;;11.63;6.15;;;;;;;2.49;100.00;101072.66;5063842;28;20194;-77
2022/01/21 07:33:54;;;;;;;10.52;6.40;;;;;;;2.49;100.00;101075.31;5064876;28;20193;-77
2022/01/21 07:36:20;;;;;;;15.23;7.68;;;;;;;2.77;100.00;101086.75;5064444;28;20276;-77
2022/01/21 07:38:47;;;;;;;13.32;6.30;;;;;;;2.93;100.00;101076.97;5064886;28;20226;-77
2022/01/21 07:41:14;;;;;;;15.32;7.88;;;;;;;2.90;100.00;101074.31;5059032;28;20205;-77
2022/01/21 07:43:40;;;;;;;16.27;6.93;;;;;;;3.09;100.00;101067.16;5064890;28;20311;-77
2022/01/21 07:46:07;;;;;;;10.45;6.45;;;;;;;2.78;100.00;101074.34;5066542;28;20282;-77
2022/01/21 07:48:35;;;;;;;12.48;6.28;;;;;;;2.92;100.00;101075.19;5056843;28;20265;-76
2022/01/21 07:51:02;;;;;;;15.27;6.22;;;;;;;3.00;100.00;101073.38;5059435;28;20198;-77
2022/01/21 07:53:29;;;;;;;13.88;6.55;;;;;;;2.92;100.00;101072.53;5065780;28;20277;-76
2022/01/21 07:55:55;;;;;;;11.25;6.22;;;;;;;2.82;100.00;101081.44;5066517;28;20218;-77
2022/01/21 07:58:22;;;;;;;11.50;6.18;;;;;;;3.01;100.00;101071.59;5069748;28;20217;-76
2022/01/21 08:00:49;;;;;;;11.40;6.53;;;;;;;2.80;100.00;101078.75;5068005;28;20185;-76
2022/01/21 08:03:16;;;;;;;13.55;6.40;;;;;;;3.00;100.00;101081.38;5065756;28;20216;-77
2022/01/21 08:05:46;;;;;;;12.85;6.18;;;;;;;3.19;100.00;101067.97;5068547;28;20205;-76
2022/01/21 08:08:12;;;;;;;13.10;6.75;;;;;;;3.17;100.00;101069.78;5071465;28;20197;-76
2022/01/21 08:10:39;;;;;;;13.30;6.70;;;;;;;3.21;100.00;101066.19;5072387;28;20243;-76
2022/01/21 08:13:06;;;;;;;14.50;6.35;;;;;;;3.25;98.55;101070.63;5055651;28;20206;-76
2022/01/21 08:15:33;;;;;;;12.70;6.22;;;;;;;3.16;99.73;101083.97;5052150;28;20197;-76
2022/01/21 08:18:00;;;;;;;14.45;6.57;;;;;;;2.98;100.00;101095.56;5064625;28;20221;-76
2022/01/21 08:20:26;;;;;;;12.55;6.40;;;;;;;3.02;100.00;101076.94;5055059;28;20304;-76
2022/01/21 08:22:54;;;;;;;12.68;6.60;;;;;;;3.15;100.00;101092.88;5052241;28;20210;-76
2022/01/21 08:25:21;;;;;;;16.40;7.22;;;;;;;3.28;99.74;101089.28;5052029;28;20718;-75
2022/01/21 08:27:48;;;;;;;17.85;7.50;;;;;;;3.05;100.00;101098.22;5065453;28;20185;-77
2022/01/21 08:30:15;;;;;;;13.15;7.63;;;;;;;2.99;100.00;101100.91;5066247;28;20250;-76
2022/01/21 08:32:42;;;;;;;15.63;6.65;;;;;;;2.98;100.00;101099.09;5067354;28;20217;-77
2022/01/21 08:35:10;;;;;;;14.38;7.00;;;;;;;3.13;100.00;101092.88;5051867;28;20191;-77
2022/01/21 08:37:37;;;;;;;19.55;7.05;;;;;;;3.16;99.90;101091.97;5051780;28;20186;-78
2022/01/21 08:40:07;;;;;;;18.02;7.90;;;;;;;3.11;100.00;101098.19;5053653;28;20976;-75
2022/01/21 08:42:34;;;;;;;15.90;7.53;;;;;;;3.05;100.00;101100.88;5052314;28;20185;-75
2022/01/21 08:45:00;;;;;;;15.07;8.00;;;;;;;3.09;100.00;101097.31;5052564;28;20691;-75
2022/01/21 08:47:27;;;;;;;16.48;8.68;;;;;;;3.25;100.00;101099.91;5052723;28;20206;-76
2022/01/21 08:49:56;;;;;;;18.90;7.13;;;;;;;3.25;98.83;101099.91;5057969;28;20373;-76
2022/01/21 08:52:26;;;;;;;11.70;6.88;;;;;;;3.19;99.32;101100.84;5062822;28;20190;-76
2022/01/21 08:54:53;;;;;;;13.43;7.05;;;;;;;3.26;100.00;101105.25;5072644;28;20182;-76
2022/01/21 08:57:21;;;;;;;14.55;7.57;;;;;;;3.34;98.50;101108.72;5055636;28;20273;-76
2022/01/21 08:59:49;;;;;;;15.73;7.57;;;;;;;3.33;99.06;101106.97;5052654;28;20193;-76
2022/01/21 09:02:16;;;;;;;16.10;8.98;;;;;;;3.69;97.35;101104.16;5053962;28;20606;-77
2022/01/21 09:04:43;;;;;;;12.55;7.47;;;;;;;3.56;96.69;101105.97;5052181;28;20248;-76
2022/01/21 09:07:09;;;;;;;22.73;7.78;;;;;;;3.31;98.14;101118.53;5052624;28;20273;-77
2022/01/21 09:09:36;;;;;;;19.42;7.80;;;;;;;3.27;100.00;101114.09;5052330;28;20233;-77
2022/01/21 09:12:03;;;;;;;15.35;7.70;;;;;;;3.23;100.00;101112.34;5069197;28;20254;-76
2022/01/21 09:14:33;;;;;;;21.30;7.28;;;;;;;3.40;100.00;101107.84;5072384;28;20292;-76
2022/01/21 09:17:00;;;;;;;15.40;7.68;;;;;;;3.68;98.21;101115.69;5072694;28;20321;-77
2022/01/21 09:19:27;;;;;;;13.63;7.65;;;;;;;3.49;98.06;101110.44;5076065;28;20669;-77
2022/01/21 09:21:55;;;;;;;18.63;7.95;;;;;;;3.40;98.48;101104.28;5067826;28;20278;-78
2022/01/21 09:24:22;;;;;;;13.48;7.95;;;;;;;3.26;100.00;101113.22;5056522;28;20221;-77
2022/01/21 09:26:50;;;;;;;15.18;8.23;;;;;;;3.42;100.00;101116.72;5058132;28;20525;-78
2022/01/21 09:29:17;;;;;;;19.20;8.43;;;;;;;3.32;100.00;101122.94;5056401;28;20304;-78
2022/01/21 09:31:46;;;;;;;15.60;7.45;;;;;;;3.31;100.00;101121.19;5057124;28;20197;-77
2022/01/21 09:34:13;;;;;;;12.88;6.72;;;;;;;3.32;100.00;101123.84;5074900;28;20232;-78
2022/01/21 09:36:39;;;;;;;21.45;6.47;;;;;;;3.23;100.00;101117.66;5063321;28;20273;-77
2022/01/21 09:39:07;;;;;;;13.82;6.85;;;;;;;3.33;100.00;101117.63;5056163;28;20206;-77
2022/01/21 09:41:33;;;;;;;20.95;7.28;;;;;;;3.36;99.22;101110.53;5049097;28;20268;-77
2022/01/21 09:44:03;;;;;;;13.27;6.93;;;;;;;3.70;98.07;101119.22;5055602;28;20290;-76
2022/01/21 09:46:34;;;;;;;14.48;6.63;;;;;;;3.80;96.92;101120.03;5056536;28;20212;-78
2022/01/21 09:49:19;;;;;;;17.50;7.20;;;;;;;3.89;95.96;101126.22;5055534;28;20992;-76
2022/01/21 09:51:46;;;;;;;14.07;7.40;;;;;;;3.89;94.02;101126.22;5059446;28;20192;-78
2022/01/21 09:54:13;;;;;;;16.25;6.30;;;;;;;4.05;94.52;101121.69;5076706;28;20302;-78
2022/01/21 09:56:40;;;;;;;15.57;6.53;;;;;;;4.25;92.59;101131.28;5075957;28;20307;-77
2022/01/21 09:59:07;;;;;;;12.05;6.30;;;;;;;4.17;91.64;101134.03;5074056;28;20217;-77
2022/01/21 10:01:34;;;;;;;9.57;5.75;;;;;;;4.28;91.50;101131.28;5055985;28;20190;-77
2022/01/21 10:04:02;;;;;;;12.40;6.63;;;;;;;4.30;89.84;101121.50;5056080;28;20202;-81
2022/01/21 10:06:30;;;;;;;11.80;6.32;;;;;;;4.27;90.91;101118.81;5073206;28;20201;-77
2022/01/21 10:08:57;;;;;;;12.40;6.55;;;;;;;3.91;93.46;101121.78;5076295;28;20286;-77
2022/01/21 10:11:25;;;;;;;16.15;6.15;;;;;;;3.96;93.27;101129.75;5058407;28;20194;-78
2022/01/21 10:13:53;;;;;;;12.95;6.20;;;;;;;4.02;93.06;101126.13;5075808;28;20208;-78
2022/01/21 10:16:19;;;;;;;16.27;6.30;;;;;;;3.82;94.15;101123.59;5075959;28;20205;-78
2022/01/21 10:19:11;;;;;;;12.45;6.82;;;;;;;3.80;96.50;101130.69;5063023;28;20503;-78
2022/01/21 10:21:41;;;;;;;13.18;6.50;;;;;;;3.92;95.11;101120.84;5034949;28;20261;-79
2022/01/21 10:24:10;;;;;;;15.07;6.25;;;;;;;4.00;94.27;101127.91;5055550;28;20206;-79
2022/01/21 10:26:49;;;;;;;10.80;6.60;;;;;;;4.02;93.66;101127.00;5056421;28;20577;-79
2022/01/21 10:29:18;;;;;;;9.50;6.13;;;;;;;4.38;91.83;101132.97;5054205;28;20242;-78
2022/01/21 10:31:56;;;;;;;13.73;6.55;;;;;;;4.67;89.87;101122.03;5060020;28;20228;-77
2022/01/21 10:34:30;;;;;;;14.32;5.40;;;;;;;4.70;88.58;101114.00;5039224;28;20183;-79
2022/01/21 10:37:04;;;;;;;10.77;6.82;;;;;;;5.05;85.34;101114.53;5055619;28;20268;-78
2022/01/21 10:39:34;;;;;;;9.18;5.80;;;;;;;5.34;83.98;101120.41;5055809;28;20212;-78
2022/01/21 10:42:02;;;;;;;11.82;5.88;;;;;;;5.43;82.11;101117.63;5055169;28;20187;-79
2022/01/21 10:44:30;;;;;;;11.73;5.43;;;;;;;5.26;83.33;101118.75;5058687;28;20624;-80
2022/01/21 10:47:05;;;;;;;7.82;4.75;;;;;;;5.40;81.71;101119.44;5055833;28;20202;-80
2022/01/21 10:49:35;;;;;;;8.77;6.50;;;;;;;5.26;82.44;101114.28;5055314;28;20629;-77
2022/01/21 10:52:03;;;;;;;10.82;4.65;;;;;;;5.23;81.63;101112.53;5059058;28;20226;-78
2022/01/21 10:54:30;;;;;;;12.38;5.00;;;;;;;5.60;80.22;101117.41;5054289;28;20217;-78
2022/01/21 10:57:07;;;;;;;9.07;3.83;;;;;;;5.50;78.02;101118.44;5064254;28;20203;-79
2022/01/21 10:59:55;;;;;;;4.70;2.85;;;;;;;5.31;76.68;101114.22;5034906;28;20191;-78
2022/01/21 11:02:34;;;;;;;6.93;3.28;;;;;;;4.95;79.64;101109.31;5053393;28;20244;-78
2022/01/21 11:05:06;;;;;;;6.65;3.22;;;;;;;5.31;79.05;101106.22;5062742;28;20202;-78
2022/01/21 11:07:51;;;;;;;8.15;4.05;;;;;;;5.48;77.64;101101.53;5073586;28;20190;-76
2022/01/21 11:10:42;;;;;;;11.23;4.15;;;;;;;5.09;79.50;101108.25;5073953;28;20647;-79
2022/01/21 11:13:37;;;;;;;7.68;3.85;;;;;;;4.76;82.21;101110.38;5074656;28;20189;-77
2022/01/21 11:16:26;;;;;;;5.68;3.10;;;;;;;4.77;82.93;101105.06;5073208;28;20193;-78
2022/01/21 11:19:06;;;;;;;9.80;3.97;;;;;;;4.57;83.55;101099.91;5053908;28;20269;-77
2022/01/21 11:21:46;;;;;;;7.47;4.13;;;;;;;4.79;82.89;101103.25;5068092;28;20235;-77
2022/01/21 11:24:15;;;;;;;10.95;4.72;;;;;;;4.81;83.21;101105.88;5073182;28;20191;-78
2022/01/21 11:26:42;;;;;;;7.25;3.50;;;;;;;4.79;82.07;101107.69;5073362;28;20221;-78
2022/01/21 11:29:10;;;;;;;7.82;4.13;;;;;;;4.88;82.12;101114.72;5060461;28;20221;-79
2022/01/21 11:31:37;;;;;;;10.07;4.20;;;;;;;5.17;80.54;101109.03;5053537;28;20233;-79
2022/01/21 11:34:03;;;;;;;10.35;3.90;;;;;;;5.12;79.00;101109.09;5053702;28;20279;-78
2022/01/21 11:36:30;;;;;;;10.15;3.70;;;;;;;4.76;81.53;101116.59;5053473;28;20218;-77
2022/01/21 11:38:59;;;;;;;8.55;3.40;;;;;;;4.62;81.47;101113.19;5054443;28;20657;-79
2022/01/21 11:41:27;;;;;;;14.38;3.88;;;;;;;4.75;82.02;101109.50;5073328;28;20196;-77
2022/01/21 11:43:59;;;;;;;8.52;3.72;;;;;;;4.92;80.42;101100.44;5071662;28;20191;-79
2022/01/21 11:46:39;;;;;;;9.55;3.75;;;;;;;5.08;79.76;101093.13;5072758;28;20212;-78
2022/01/21 11:49:10;;;;;;;8.30;3.72;;;;;;;5.10;78.24;101092.22;5073274;28;20232;-78
2022/01/21 11:51:38;;;;;;;6.75;3.30;;;;;;;5.12;78.01;101094.88;5064480;28;20213;-79
2022/01/21 11:54:08;;;;;;;5.18;2.90;;;;;;;5.09;77.26;101090.47;5065295;28;20221;-78
2022/01/21 11:56:46;;;;;;;4.32;2.75;;;;;;;5.18;76.54;101098.34;5072608;28;20268;-78
2022/01/21 11:59:25;;;;;;;5.22;2.85;;;;;;;5.34;75.04;101092.84;5072812;28;20334;-79
2022/01/21 12:01:53;;;;;;;7.60;3.28;;;;;;;5.67;74.30;101085.25;5072907;28;20204;-78
2022/01/21 12:04:40;;;;;;;6.95;3.00;;;;;;;5.63;74.06;101087.97;5072618;28;20294;-79
2022/01/21 12:07:57;;;;;;;7.75;3.58;;;;;;;6.02;72.51;101082.97;5072644;28;20197;-78
2022/01/21 12:10:36;;;;;;;6.38;3.20;;;;;;;5.79;72.63;101072.59;5049851;28;20209;-78
2022/01/21 12:13:17;;;;;;;6.35;3.30;;;;;;;5.76;73.45;101067.28;5067523;28;20641;-78